createdAt,value
2023-05-22T00:01:50.710Z,130.82
2023-05-22T00:04:22.581Z,116.45
2023-05-22T00:06:51.768Z,114.15
2023-05-22T00:09:20.469Z,121.80
2023-05-22T00:11:49.407Z,122.15
2023-05-22T00:14:18.075Z,123.45
2023-05-22T00:16:47.573Z,119.72
2023-05-22T00:19:18.403Z,126.80
2023-05-22T00:21:48.242Z,117.43
2023-05-22T00:24:16.652Z,132.90
2023-05-22T00:26:45.250Z,129.70
2023-05-22T00:29:13.728Z,120.00
2023-05-22T00:31:42.252Z,124.80
2023-05-22T00:34:10.883Z,135.05
2023-05-22T00:36:39.593Z,115.55
2023-05-22T00:39:07.970Z,129.40
2023-05-22T00:41:36.788Z,128.63
2023-05-22T00:44:05.621Z,119.18
2023-05-22T00:46:34.996Z,124.85
2023-05-22T00:49:04.452Z,123.10
2023-05-22T00:51:33.345Z,121.75
2023-05-22T00:54:02.286Z,119.38
2023-05-22T00:56:30.917Z,118.47
2023-05-22T00:59:00.526Z,125.65
2023-05-22T01:01:34.541Z,121.50
2023-05-22T01:04:03.293Z,122.68
2023-05-22T01:06:33.563Z,112.28
2023-05-22T01:09:02.168Z,117.43
2023-05-22T01:11:42.067Z,121.05
2023-05-22T01:14:29.468Z,131.40
2023-05-22T01:17:03.887Z,129.48
2023-05-22T01:20:02.513Z,124.15
2023-05-22T01:22:37.646Z,122.32
2023-05-22T01:25:36.672Z,124.55
2023-05-22T01:28:20.183Z,116.22
2023-05-22T01:30:53.491Z,122.30
2023-05-22T01:33:27.396Z,117.82
2023-05-22T01:36:01.141Z,123.35
2023-05-22T01:38:30.488Z,124.00
2023-05-22T01:41:00.112Z,124.05
2023-05-22T01:43:29.030Z,124.03
2023-05-22T01:45:57.586Z,118.97
2023-05-22T01:48:25.975Z,124.43
2023-05-22T01:50:56.452Z,133.15
2023-05-22T01:53:38.031Z,124.53
2023-05-22T01:56:18.429Z,132.30
2023-05-22T01:59:08.275Z,141.50
2023-05-22T02:01:39.650Z,136.43
2023-05-22T02:04:11.313Z,144.03
2023-05-22T02:06:41.287Z,140.05
2023-05-22T02:09:10.539Z,157.20
2023-05-22T02:11:40.424Z,137.52
2023-05-22T02:14:10.391Z,144.10
2023-05-22T02:16:39.450Z,151.30
2023-05-22T02:19:08.003Z,146.98
2023-05-22T02:21:37.647Z,152.65
2023-05-22T02:24:05.864Z,161.38
2023-05-22T02:26:34.463Z,148.15
2023-05-22T02:29:03.070Z,163.73
2023-05-22T02:31:31.690Z,169.98
2023-05-22T02:34:00.256Z,169.93
2023-05-22T02:36:28.930Z,168.02
2023-05-22T02:38:57.330Z,178.52
2023-05-22T02:41:25.893Z,168.10
2023-05-22T02:43:54.497Z,175.48
2023-05-22T02:46:23.171Z,172.57
2023-05-22T02:48:51.763Z,175.48
2023-05-22T02:51:20.247Z,166.85
2023-05-22T02:53:48.917Z,170.75
2023-05-22T02:56:18.062Z,170.38
2023-05-22T02:58:46.927Z,169.88
2023-05-22T03:01:15.538Z,173.13
2023-05-22T03:03:45.037Z,171.82
2023-05-22T03:06:14.000Z,158.02
2023-05-22T03:08:44.956Z,166.60
2023-05-22T03:11:13.307Z,176.63
2023-05-22T03:13:42.031Z,168.60
2023-05-22T03:16:10.620Z,170.70
2023-05-22T03:18:39.192Z,172.18
2023-05-22T03:21:07.868Z,170.15
2023-05-22T03:23:36.377Z,171.80
2023-05-22T03:26:05.013Z,163.85
2023-05-22T03:28:33.845Z,169.27
2023-05-22T03:31:02.426Z,167.27
2023-05-22T03:33:30.959Z,169.23
2023-05-22T03:35:59.513Z,161.57
2023-05-22T03:38:28.145Z,166.93
2023-05-22T03:40:56.541Z,165.43
2023-05-22T03:43:25.167Z,164.63
2023-05-22T03:45:53.613Z,158.43
2023-05-22T03:48:22.706Z,165.25
2023-05-22T03:50:51.292Z,163.98
2023-05-22T03:53:19.908Z,163.88
2023-05-22T03:55:48.488Z,158.15
2023-05-22T03:58:17.114Z,161.63
2023-05-22T04:00:47.468Z,176.55
2023-05-22T04:03:20.776Z,174.18
2023-05-22T04:05:50.145Z,166.05
2023-05-22T04:08:18.981Z,162.85
2023-05-22T04:10:50.481Z,163.85
2023-05-22T04:13:19.131Z,165.43
2023-05-22T04:15:48.036Z,162.50
2023-05-22T04:18:16.959Z,158.43
2023-05-22T04:20:45.505Z,167.13
2023-05-22T04:23:14.552Z,156.27
2023-05-22T04:25:43.138Z,174.30
2023-05-22T04:28:11.614Z,158.57
2023-05-22T04:30:41.624Z,160.82
2023-05-22T04:33:10.416Z,161.77
2023-05-22T04:35:39.040Z,165.32
2023-05-22T04:38:07.244Z,164.13
2023-05-22T04:40:35.941Z,161.57
2023-05-22T04:43:04.780Z,168.93
2023-05-22T04:45:34.161Z,152.95
2023-05-22T04:48:03.794Z,173.77
2023-05-22T04:50:33.920Z,165.80
2023-05-22T04:53:05.565Z,165.23
2023-05-22T04:55:37.038Z,162.47
2023-05-22T04:58:07.227Z,159.20
2023-05-22T05:00:35.910Z,162.00
2023-05-22T05:03:05.532Z,162.73
2023-05-22T05:05:34.303Z,165.32
2023-05-22T05:08:03.287Z,163.85
2023-05-22T05:10:31.987Z,149.60
2023-05-22T05:13:00.505Z,160.40
2023-05-22T05:15:29.486Z,165.27
2023-05-22T05:17:58.105Z,150.98
2023-05-22T05:20:26.719Z,155.85
2023-05-22T05:22:55.329Z,156.30
2023-05-22T05:25:24.065Z,160.25
2023-05-22T05:27:52.598Z,160.50
2023-05-22T05:30:21.393Z,153.77
2023-05-22T05:32:50.002Z,161.23
2023-05-22T05:35:18.667Z,162.93
2023-05-22T05:37:47.266Z,152.93
2023-05-22T05:40:15.981Z,149.95
2023-05-22T05:42:44.465Z,155.10
2023-05-22T05:45:14.680Z,171.00
2023-05-22T05:47:43.427Z,167.25
2023-05-22T05:50:12.540Z,165.82
2023-05-22T05:52:40.908Z,170.60
2023-05-22T05:55:10.330Z,151.98
2023-05-22T05:57:38.840Z,152.45
2023-05-22T06:00:10.790Z,152.35
2023-05-22T06:02:39.686Z,161.13
2023-05-22T06:05:10.358Z,159.52
2023-05-22T06:07:40.975Z,164.15
2023-05-22T06:10:10.908Z,159.73
2023-05-22T06:12:40.064Z,154.20
2023-05-22T06:15:09.840Z,159.23
2023-05-22T06:17:41.071Z,155.65
2023-05-22T06:20:10.476Z,154.98
2023-05-22T06:22:39.386Z,149.57
2023-05-22T06:25:08.305Z,159.27
2023-05-22T06:27:36.780Z,165.80
2023-05-22T06:30:05.753Z,164.65
2023-05-22T06:32:34.471Z,160.52
2023-05-22T06:35:03.189Z,160.10
2023-05-22T06:37:34.381Z,161.05
2023-05-22T06:40:03.222Z,153.95
2023-05-22T06:42:31.834Z,160.85
2023-05-22T06:45:00.373Z,165.15
2023-05-22T06:47:28.914Z,163.90
2023-05-22T06:49:57.457Z,172.75
2023-05-22T06:52:26.045Z,168.65
2023-05-22T06:54:55.186Z,198.95
2023-05-22T06:57:25.311Z,192.60
2023-05-22T06:59:53.915Z,208.23
2023-05-22T07:02:22.420Z,231.77
2023-05-22T07:04:51.110Z,238.05
2023-05-22T07:07:19.952Z,234.07
2023-05-22T07:09:48.627Z,251.45
2023-05-22T07:12:17.516Z,257.13
2023-05-22T07:14:46.138Z,254.55
2023-05-22T07:17:14.605Z,253.93
2023-05-22T07:19:42.996Z,265.42
2023-05-22T07:22:11.842Z,288.38
2023-05-22T07:24:40.444Z,273.45
2023-05-22T07:27:10.414Z,298.15
2023-05-22T07:29:39.418Z,290.80
2023-05-22T07:32:08.294Z,296.23
2023-05-22T07:34:36.806Z,314.85
2023-05-22T07:37:10.259Z,318.60
2023-05-22T07:39:38.781Z,322.77
2023-05-22T07:42:07.532Z,328.45
2023-05-22T07:44:36.300Z,333.42
2023-05-22T07:47:04.867Z,328.98
2023-05-22T07:49:33.542Z,333.02
2023-05-22T07:52:02.342Z,325.35
2023-05-22T07:54:30.763Z,307.25
2023-05-22T07:56:59.168Z,322.42
2023-05-22T07:59:27.702Z,330.65
2023-05-22T08:01:58.195Z,312.55
2023-05-22T08:04:27.545Z,307.73
2023-05-22T08:06:56.888Z,306.75
2023-05-22T08:09:25.659Z,307.95
2023-05-22T08:11:54.318Z,313.67
2023-05-22T08:14:23.942Z,307.95
2023-05-22T08:16:52.569Z,298.40
2023-05-22T08:19:21.359Z,298.63
2023-05-22T08:21:49.989Z,288.88
2023-05-22T08:24:17.920Z,285.65
2023-05-22T08:26:46.599Z,297.40
2023-05-22T08:29:15.127Z,296.40
2023-05-22T08:31:43.717Z,287.30
2023-05-22T08:34:12.452Z,294.83
2023-05-22T08:36:40.790Z,296.27
2023-05-22T08:39:11.387Z,309.33
2023-05-22T08:41:40.242Z,321.77
2023-05-22T08:44:08.874Z,312.00
2023-05-22T08:46:39.222Z,311.75
2023-05-22T08:49:07.426Z,303.48
2023-05-22T08:51:40.294Z,298.58
2023-05-22T08:54:08.936Z,303.05
2023-05-22T08:56:42.774Z,293.92
2023-05-22T08:59:22.875Z,280.92
2023-05-22T09:01:53.547Z,279.20
2023-05-22T09:04:25.116Z,295.58
2023-05-22T09:06:54.615Z,263.25
2023-05-22T09:09:23.797Z,277.70
2023-05-22T09:11:52.649Z,259.48
2023-05-22T09:14:21.300Z,261.50
2023-05-22T09:16:53.207Z,261.13
2023-05-22T09:19:21.886Z,261.10
2023-05-22T09:21:50.413Z,237.60
2023-05-22T09:24:18.998Z,217.70
2023-05-22T09:26:47.660Z,218.93
2023-05-22T09:29:16.147Z,225.85
2023-05-22T09:31:45.952Z,207.98
2023-05-22T09:34:19.002Z,200.75
2023-05-22T09:36:47.553Z,211.23
2023-05-22T09:39:16.103Z,203.60
2023-05-22T09:41:46.139Z,187.25
2023-05-22T09:44:16.351Z,197.65
2023-05-22T09:46:48.840Z,184.05
2023-05-22T09:49:17.944Z,175.40
2023-05-22T09:51:50.650Z,178.85
2023-05-22T09:54:21.419Z,180.82
2023-05-22T09:56:54.419Z,183.95
2023-05-22T09:59:24.534Z,188.50
2023-05-22T10:01:53.179Z,188.68
2023-05-22T10:04:24.664Z,184.60
2023-05-22T10:06:55.764Z,191.73
2023-05-22T10:09:27.829Z,183.23
2023-05-22T10:11:59.205Z,174.93
2023-05-22T10:14:29.022Z,175.77
2023-05-22T10:17:03.458Z,161.60
2023-05-22T10:19:33.595Z,165.93
2023-05-22T10:22:03.134Z,152.30
2023-05-22T10:24:32.600Z,154.27
2023-05-22T10:27:01.409Z,151.15
2023-05-22T10:29:38.965Z,144.43
2023-05-22T10:32:27.210Z,148.13
2023-05-22T10:34:58.583Z,136.75
2023-05-22T10:37:49.216Z,141.98
2023-05-22T10:40:23.720Z,142.20
2023-05-22T10:42:52.276Z,131.52
2023-05-22T10:45:21.373Z,121.90
2023-05-22T10:47:49.976Z,122.57
2023-05-22T10:50:19.646Z,122.55
2023-05-22T10:52:49.370Z,124.50
2023-05-22T10:55:24.667Z,119.95
2023-05-22T10:57:58.062Z,124.47
2023-05-22T11:00:26.688Z,122.82
2023-05-22T11:03:17.912Z,118.03
2023-05-22T11:05:55.414Z,123.85
2023-05-22T11:08:36.103Z,101.22
2023-05-22T11:11:14.019Z,116.47
2023-05-22T11:13:42.876Z,112.20
2023-05-22T11:16:11.723Z,108.05
2023-05-22T11:18:40.433Z,122.53
2023-05-22T11:21:12.483Z,104.32
2023-05-22T11:23:41.300Z,107.30
2023-05-22T11:26:27.826Z,103.63
2023-05-22T11:28:57.235Z,109.40
2023-05-22T11:31:26.648Z,104.05
2023-05-22T11:33:55.708Z,103.85
2023-05-22T11:36:24.827Z,110.93
2023-05-22T11:38:58.506Z,109.22
2023-05-22T11:41:33.403Z,108.25
2023-05-22T11:44:03.151Z,101.68
2023-05-22T11:46:31.854Z,110.05
2023-05-22T11:49:00.613Z,107.97
2023-05-22T11:51:30.268Z,100.50
2023-05-22T11:53:59.097Z,100.07
2023-05-22T11:56:27.676Z,106.85
2023-05-22T11:58:56.181Z,109.25
2023-05-22T12:01:24.577Z,108.68
2023-05-22T12:03:53.365Z,110.50
2023-05-22T12:06:22.390Z,117.82
2023-05-22T12:08:52.036Z,111.68
2023-05-22T12:11:20.764Z,106.90
2023-05-22T12:13:53.389Z,111.20
2023-05-22T12:16:26.595Z,112.82
2023-05-22T12:18:56.047Z,116.68
2023-05-22T12:21:24.703Z,110.28
2023-05-22T12:23:53.648Z,113.88
2023-05-22T12:26:22.903Z,112.53
2023-05-22T12:28:55.858Z,113.93
2023-05-22T12:31:24.722Z,138.85
2023-05-22T12:33:59.261Z,153.20
2023-05-22T12:36:41.290Z,148.98
2023-05-22T12:39:17.944Z,155.02
2023-05-22T12:41:47.778Z,160.82
2023-05-22T12:44:17.689Z,157.73
2023-05-22T12:46:46.330Z,170.68
2023-05-22T12:49:14.877Z,165.45
2023-05-22T12:51:43.840Z,166.70
2023-05-22T12:54:12.500Z,172.25
2023-05-22T12:56:41.088Z,160.40
2023-05-22T12:59:09.960Z,153.82
2023-05-22T13:01:38.529Z,147.88
2023-05-22T13:04:07.096Z,138.80
2023-05-22T13:06:35.694Z,137.57
2023-05-22T13:09:04.420Z,124.32
2023-05-22T13:11:33.133Z,127.03
2023-05-22T13:14:01.775Z,126.20
2023-05-22T13:16:32.395Z,127.65
2023-05-22T13:19:01.035Z,116.82
2023-05-22T13:21:29.686Z,111.53
2023-05-22T13:23:58.496Z,119.65
2023-05-22T13:26:27.721Z,115.05
2023-05-22T13:28:56.247Z,117.28
2023-05-22T13:31:24.792Z,123.20
2023-05-22T13:33:53.420Z,128.40
2023-05-22T13:36:22.076Z,120.78
2023-05-22T13:38:50.743Z,121.95
2023-05-22T13:41:19.347Z,113.35
2023-05-22T13:43:48.179Z,114.40
2023-05-22T13:46:16.835Z,114.63
2023-05-22T13:48:45.550Z,122.70
2023-05-22T13:51:14.069Z,117.43
2023-05-22T13:53:42.725Z,116.20
2023-05-22T13:56:11.230Z,111.97
2023-05-22T13:58:39.576Z,109.97
2023-05-22T14:01:08.169Z,104.40
2023-05-22T14:03:36.957Z,113.65
2023-05-22T14:06:06.284Z,102.15
2023-05-22T14:08:35.513Z,102.65
2023-05-22T14:11:04.249Z,108.57
2023-05-22T14:13:33.347Z,106.28
2023-05-22T14:16:01.980Z,92.38
2023-05-22T14:18:30.608Z,94.38
2023-05-22T14:20:59.263Z,87.95
2023-05-22T14:23:27.959Z,89.47
2023-05-22T14:25:56.502Z,89.50
2023-05-22T14:28:25.786Z,96.72
2023-05-22T14:30:54.185Z,88.53
2023-05-22T14:33:22.785Z,83.55
2023-05-22T14:35:52.950Z,86.55
2023-05-22T14:38:21.457Z,82.40
2023-05-22T14:40:50.071Z,77.88
2023-05-22T14:43:18.585Z,77.82
2023-05-22T14:45:47.156Z,87.72
2023-05-22T14:48:15.716Z,90.68
2023-05-22T14:50:44.131Z,83.03
2023-05-22T14:53:13.069Z,72.55
2023-05-22T14:55:41.828Z,70.50
2023-05-22T14:58:10.653Z,67.45
2023-05-22T15:00:39.180Z,73.85
2023-05-22T15:03:07.879Z,76.80
2023-05-22T15:05:36.514Z,82.45
2023-05-22T15:08:05.163Z,74.72
2023-05-22T15:10:33.895Z,73.72
2023-05-22T15:13:02.555Z,72.05
2023-05-22T15:15:31.097Z,72.13
2023-05-22T15:18:03.793Z,70.68
2023-05-22T15:20:32.949Z,73.63
2023-05-22T15:23:02.219Z,76.03
2023-05-22T15:25:33.048Z,76.03
2023-05-22T15:28:03.641Z,79.50
2023-05-22T15:30:36.568Z,86.50
2023-05-22T15:35:33.693Z,86.55
2023-05-22T15:38:02.444Z,99.72
2023-05-22T15:40:31.126Z,93.22
2023-05-22T15:42:59.523Z,99.82
2023-05-22T15:45:28.066Z,101.97
2023-05-22T15:47:56.679Z,103.20
2023-05-22T15:50:25.553Z,108.72
2023-05-22T15:52:54.129Z,111.35
2023-05-22T15:55:22.706Z,109.88
2023-05-22T15:57:51.094Z,122.25
2023-05-22T16:00:22.480Z,127.80
2023-05-22T16:02:51.204Z,129.88
2023-05-22T16:05:20.454Z,135.32
2023-05-22T16:07:48.823Z,129.68
2023-05-22T16:10:17.462Z,126.57
2023-05-22T16:12:46.064Z,133.63
2023-05-22T16:15:14.695Z,128.23
2023-05-22T16:17:43.214Z,127.00
2023-05-22T16:20:12.108Z,119.85
2023-05-22T16:22:48.782Z,121.45
2023-05-22T16:25:19.241Z,116.65
2023-05-22T16:27:47.654Z,104.38
2023-05-22T16:30:20.218Z,113.50
2023-05-22T16:32:49.827Z,116.13
2023-05-22T16:35:20.760Z,110.75
2023-05-22T16:37:49.719Z,107.72
2023-05-22T16:40:19.854Z,103.07
2023-05-22T16:42:48.650Z,113.65
2023-05-22T16:45:17.352Z,109.68
2023-05-22T16:47:45.983Z,116.35
2023-05-22T16:50:14.772Z,108.20
2023-05-22T16:52:43.406Z,113.35
2023-05-22T16:55:12.085Z,118.70
2023-05-22T16:57:41.418Z,121.20
2023-05-22T17:00:12.116Z,118.50
2023-05-22T17:02:41.017Z,113.53
2023-05-22T17:05:09.852Z,126.53
2023-05-22T17:07:39.110Z,108.20
2023-05-22T17:10:11.710Z,114.35
2023-05-22T17:12:40.395Z,114.13
2023-05-22T17:15:09.641Z,109.28
2023-05-22T17:17:38.299Z,114.85
2023-05-22T17:20:11.325Z,114.25
2023-05-22T17:22:40.332Z,116.93
2023-05-22T17:25:09.420Z,112.72
2023-05-22T17:27:38.002Z,108.80
2023-05-22T17:30:08.863Z,118.13
2023-05-22T17:32:37.549Z,109.88
2023-05-22T17:35:07.688Z,112.97
2023-05-22T17:37:36.278Z,112.80
2023-05-22T17:40:05.888Z,108.30
2023-05-22T17:42:34.476Z,109.25
2023-05-22T17:45:03.147Z,119.40
2023-05-22T17:47:31.776Z,109.18
2023-05-22T17:50:00.409Z,109.43
2023-05-22T17:52:28.955Z,126.65
2023-05-22T17:54:57.579Z,108.93
2023-05-22T17:57:27.324Z,114.13
2023-05-22T17:59:55.933Z,113.57
2023-05-22T18:02:25.218Z,110.68
2023-05-22T18:04:53.951Z,114.40
2023-05-22T18:07:23.749Z,114.20
2023-05-22T18:09:52.319Z,111.85
2023-05-22T18:14:52.177Z,103.72
2023-05-22T18:17:20.824Z,108.40
2023-05-22T18:19:49.415Z,106.10
2023-05-22T18:22:17.989Z,105.78
2023-05-22T18:24:46.609Z,111.70
2023-05-22T18:27:15.095Z,107.13
2023-05-22T18:29:43.741Z,103.15
2023-05-22T18:32:12.384Z,107.95
2023-05-22T18:34:40.902Z,102.38
2023-05-22T18:37:09.476Z,106.63
2023-05-22T18:39:38.693Z,109.10
2023-05-22T18:42:07.565Z,112.22
2023-05-22T18:44:36.159Z,108.65
2023-05-22T18:47:04.879Z,109.50
2023-05-22T18:49:33.788Z,105.55
2023-05-22T18:52:02.903Z,98.88
2023-05-22T18:54:31.539Z,112.28
2023-05-22T18:57:00.013Z,107.35
2023-05-22T18:59:28.749Z,103.35
2023-05-22T19:01:57.278Z,104.72
2023-05-22T19:04:25.996Z,105.50
2023-05-22T19:06:55.095Z,115.00
2023-05-22T19:09:23.856Z,113.40
2023-05-22T19:11:52.410Z,111.35
2023-05-22T19:14:20.988Z,129.48
2023-05-22T19:16:49.728Z,131.50
2023-05-22T19:19:18.432Z,137.35
2023-05-22T19:21:47.167Z,146.13
2023-05-22T19:24:15.702Z,148.45
2023-05-22T19:26:44.217Z,156.45
2023-05-22T19:29:12.763Z,160.20
2023-05-22T19:31:41.349Z,169.40
2023-05-22T19:34:09.945Z,170.38
2023-05-22T19:36:38.321Z,164.13
2023-05-22T19:39:06.921Z,169.55
2023-05-22T19:41:35.430Z,153.88
2023-05-22T19:44:04.160Z,170.35
2023-05-22T19:46:32.807Z,176.32
2023-05-22T19:49:01.439Z,174.35
2023-05-22T19:51:30.088Z,190.68
2023-05-22T19:53:58.588Z,179.25
2023-05-22T19:56:27.447Z,191.20
2023-05-22T19:58:56.034Z,186.57
2023-05-22T20:01:24.712Z,177.02
2023-05-22T20:03:53.490Z,171.07
2023-05-22T20:06:22.265Z,178.30
2023-05-22T20:08:51.023Z,194.48
2023-05-22T20:11:19.558Z,183.60
2023-05-22T20:13:48.114Z,177.07
2023-05-22T20:16:17.098Z,176.90
2023-05-22T20:18:46.208Z,177.07
2023-05-22T20:21:14.773Z,176.80
2023-05-22T20:23:43.284Z,155.90
2023-05-22T20:26:11.873Z,166.75
2023-05-22T20:28:40.499Z,167.07
2023-05-22T20:31:09.068Z,158.63
2023-05-22T20:33:37.044Z,171.30
2023-05-22T20:36:05.826Z,166.80
2023-05-22T20:38:36.434Z,178.15
2023-05-22T20:41:09.219Z,171.75
2023-05-22T20:43:38.446Z,183.77
2023-05-22T20:46:06.386Z,167.80
2023-05-22T20:48:35.038Z,173.63
2023-05-22T20:51:03.688Z,167.25
2023-05-22T20:53:32.255Z,166.02
2023-05-22T20:56:00.944Z,173.23
2023-05-22T20:58:29.496Z,163.23
2023-05-22T21:00:58.956Z,169.30
2023-05-22T21:03:27.645Z,150.35
2023-05-22T21:05:56.541Z,176.43
2023-05-22T21:08:25.159Z,177.65
2023-05-22T21:10:53.693Z,182.10
2023-05-22T21:13:22.300Z,168.60
2023-05-22T21:15:50.915Z,166.38
2023-05-22T21:18:21.118Z,180.88
2023-05-22T21:20:49.764Z,186.18
2023-05-22T21:23:18.305Z,182.07
2023-05-22T21:25:46.974Z,191.85
2023-05-22T21:28:15.650Z,195.60
2023-05-22T21:30:44.050Z,186.15
2023-05-22T21:33:13.247Z,201.00
2023-05-22T21:35:42.424Z,198.95
2023-05-22T21:38:10.808Z,190.25
2023-05-22T21:40:41.829Z,192.20
2023-05-22T21:43:10.071Z,204.65
2023-05-22T21:45:39.555Z,193.63
2023-05-22T21:48:07.611Z,191.45
2023-05-22T21:50:35.678Z,204.57
2023-05-22T21:53:03.731Z,203.23
2023-05-22T21:55:31.764Z,195.25
2023-05-22T21:57:59.725Z,209.73
2023-05-22T22:00:29.248Z,192.60
2023-05-22T22:02:58.152Z,197.02
2023-05-22T22:05:28.301Z,210.38
2023-05-22T22:07:56.283Z,201.77
2023-05-22T22:10:24.486Z,200.55
2023-05-22T22:12:52.438Z,197.32
2023-05-22T22:15:20.427Z,206.48
2023-05-22T22:17:48.617Z,203.57
2023-05-22T22:20:18.627Z,202.10
2023-05-22T22:22:49.003Z,200.33
2023-05-22T22:25:17.366Z,213.13
2023-05-22T22:27:45.924Z,212.10
2023-05-22T22:30:14.544Z,210.35
2023-05-22T22:32:42.518Z,202.63
2023-05-22T22:35:11.579Z,216.32
2023-05-22T22:37:40.288Z,204.45
2023-05-22T22:40:09.446Z,204.88
2023-05-22T22:42:38.098Z,211.70
2023-05-22T22:45:08.385Z,192.70
2023-05-22T22:47:37.509Z,205.90
2023-05-22T22:50:06.663Z,203.77
2023-05-22T22:52:35.301Z,205.60
2023-05-22T22:55:03.981Z,217.63
2023-05-22T22:57:32.769Z,205.35
2023-05-22T23:00:01.417Z,210.25
2023-05-22T23:02:29.925Z,197.02
2023-05-22T23:04:59.132Z,202.13
2023-05-22T23:07:29.418Z,201.85
2023-05-22T23:09:58.078Z,205.68
2023-05-22T23:12:26.494Z,200.63
2023-05-22T23:14:55.293Z,199.90
2023-05-22T23:17:23.862Z,206.00
2023-05-22T23:19:52.348Z,203.25
2023-05-22T23:22:20.853Z,218.55
2023-05-22T23:24:49.446Z,211.95
2023-05-22T23:27:17.838Z,197.20
2023-05-22T23:29:46.384Z,195.70
2023-05-22T23:32:15.079Z,200.80
2023-05-22T23:34:43.721Z,204.40
2023-05-22T23:37:12.306Z,200.00
2023-05-22T23:39:40.938Z,195.95
2023-05-22T23:42:11.196Z,200.50
2023-05-22T23:44:39.751Z,186.55
2023-05-22T23:47:08.698Z,201.45
2023-05-22T23:49:37.349Z,182.60
2023-05-22T23:52:06.100Z,182.75
2023-05-22T23:54:34.721Z,167.93
2023-05-22T23:57:03.231Z,152.98
2023-05-22T23:59:32.204Z,140.75
